sensor_id;sensor_type;location;lat;lon;timestamp;temperature;humidity
6496;DHT22;3281;47.658;9.166;2024-03-06T00:00:11;8.30;99.90
6496;DHT22;3281;47.658;9.166;2024-03-06T00:02:39;8.20;99.90
6496;DHT22;3281;47.658;9.166;2024-03-06T00:05:06;8.20;99.90
6496;DHT22;3281;47.658;9.166;2024-03-06T00:07:34;8.20;99.90
6496;DHT22;3281;47.658;9.166;2024-03-06T00:10:00;8.20;99.90
6496;DHT22;3281;47.658;9.166;2024-03-06T00:12:28;8.20;99.90
6496;DHT22;3281;47.658;9.166;2024-03-06T00:14:55;8.20;99.90
6496;DHT22;3281;47.658;9.166;2024-03-06T00:17:22;8.20;99.90
6496;DHT22;3281;47.658;9.166;2024-03-06T00:19:48;8.10;99.90
6496;DHT22;3281;47.658;9.166;2024-03-06T00:22:15;8.10;99.90
6496;DHT22;3281;47.658;9.166;2024-03-06T00:24:42;8.00;99.90
6496;DHT22;3281;47.658;9.166;2024-03-06T00:27:09;8.00;99.90
6496;DHT22;3281;47.658;9.166;2024-03-06T00:29:37;8.00;99.90
6496;DHT22;3281;47.658;9.166;2024-03-06T00:32:04;8.00;99.90
6496;DHT22;3281;47.658;9.166;2024-03-06T00:34:31;7.90;99.90
6496;DHT22;3281;47.658;9.166;2024-03-06T00:36:58;7.90;99.90
6496;DHT22;3281;47.658;9.166;2024-03-06T00:39:24;7.90;99.90
6496;DHT22;3281;47.658;9.166;2024-03-06T00:41:51;7.80;99.90
6496;DHT22;3281;47.658;9.166;2024-03-06T00:44:18;7.80;99.90
6496;DHT22;3281;47.658;9.166;2024-03-06T00:46:46;7.80;99.90
6496;DHT22;3281;47.658;9.166;2024-03-06T00:49:13;7.80;99.90
6496;DHT22;3281;47.658;9.166;2024-03-06T00:51:40;7.80;99.90
6496;DHT22;3281;47.658;9.166;2024-03-06T00:54:07;7.80;99.90
6496;DHT22;3281;47.658;9.166;2024-03-06T00:56:37;7.80;99.90
6496;DHT22;3281;47.658;9.166;2024-03-06T00:59:04;7.70;99.90
6496;DHT22;3281;47.658;9.166;2024-03-06T01:01:31;7.80;99.90
6496;DHT22;3281;47.658;9.166;2024-03-06T01:03:59;7.70;99.90
6496;DHT22;3281;47.658;9.166;2024-03-06T01:06:26;7.80;99.90
6496;DHT22;3281;47.658;9.166;2024-03-06T01:08:52;7.70;99.90
6496;DHT22;3281;47.658;9.166;2024-03-06T01:11:20;7.70;99.90
6496;DHT22;3281;47.658;9.166;2024-03-06T01:13:47;7.70;99.90
6496;DHT22;3281;47.658;9.166;2024-03-06T01:16:13;7.70;99.90
6496;DHT22;3281;47.658;9.166;2024-03-06T01:18:40;7.60;99.90
6496;DHT22;3281;47.658;9.166;2024-03-06T01:21:08;7.70;99.90
6496;DHT22;3281;47.658;9.166;2024-03-06T01:23:35;7.70;99.90
6496;DHT22;3281;47.658;9.166;2024-03-06T01:26:01;7.60;99.90
6496;DHT22;3281;47.658;9.166;2024-03-06T01:28:28;7.60;99.90
6496;DHT22;3281;47.658;9.166;2024-03-06T01:30:55;7.70;99.90
6496;DHT22;3281;47.658;9.166;2024-03-06T01:33:21;7.70;99.90
6496;DHT22;3281;47.658;9.166;2024-03-06T01:35:48;7.70;99.90
6496;DHT22;3281;47.658;9.166;2024-03-06T01:38:16;7.60;99.90
6496;DHT22;3281;47.658;9.166;2024-03-06T01:40:44;7.60;99.90
6496;DHT22;3281;47.658;9.166;2024-03-06T01:43:18;7.60;99.90
6496;DHT22;3281;47.658;9.166;2024-03-06T01:45:45;7.60;99.90
6496;DHT22;3281;47.658;9.166;2024-03-06T01:48:12;7.50;99.90
6496;DHT22;3281;47.658;9.166;2024-03-06T01:50:40;7.50;99.90
6496;DHT22;3281;47.658;9.166;2024-03-06T01:53:07;7.50;99.90
6496;DHT22;3281;47.658;9.166;2024-03-06T01:55:36;7.40;99.90
6496;DHT22;3281;47.658;9.166;2024-03-06T01:58:03;7.40;99.90
6496;DHT22;3281;47.658;9.166;2024-03-06T02:00:31;7.40;99.90
6496;DHT22;3281;47.658;9.166;2024-03-06T02:02:59;7.40;99.90
6496;DHT22;3281;47.658;9.166;2024-03-06T02:05:27;7.40;99.90
6496;DHT22;3281;47.658;9.166;2024-03-06T02:07:54;7.40;99.90
6496;DHT22;3281;47.658;9.166;2024-03-06T02:10:22;7.50;99.90
6496;DHT22;3281;47.658;9.166;2024-03-06T02:12:51;7.50;99.90
6496;DHT22;3281;47.658;9.166;2024-03-06T02:15:18;7.50;99.90
6496;DHT22;3281;47.658;9.166;2024-03-06T02:17:45;7.50;99.90
6496;DHT22;3281;47.658;9.166;2024-03-06T02:20:12;7.50;99.90
6496;DHT22;3281;47.658;9.166;2024-03-06T02:22:41;7.50;99.90
6496;DHT22;3281;47.658;9.166;2024-03-06T02:25:07;7.40;99.90
6496;DHT22;3281;47.658;9.166;2024-03-06T02:27:34;7.40;99.90
6496;DHT22;3281;47.658;9.166;2024-03-06T02:30:01;7.30;99.90
6496;DHT22;3281;47.658;9.166;2024-03-06T02:32:28;7.30;99.90
6496;DHT22;3281;47.658;9.166;2024-03-06T02:34:56;7.40;99.90
6496;DHT22;3281;47.658;9.166;2024-03-06T02:37:22;7.40;99.90
6496;DHT22;3281;47.658;9.166;2024-03-06T02:39:51;7.40;99.90
6496;DHT22;3281;47.658;9.166;2024-03-06T02:42:18;7.40;99.90
6496;DHT22;3281;47.658;9.166;2024-03-06T02:44:44;7.20;99.90
6496;DHT22;3281;47.658;9.166;2024-03-06T02:47:11;7.10;99.90
6496;DHT22;3281;47.658;9.166;2024-03-06T02:49:38;7.10;99.90
6496;DHT22;3281;47.658;9.166;2024-03-06T02:52:05;7.10;99.90
6496;DHT22;3281;47.658;9.166;2024-03-06T02:54:32;7.10;99.90
6496;DHT22;3281;47.658;9.166;2024-03-06T02:57:00;7.20;99.90
6496;DHT22;3281;47.658;9.166;2024-03-06T02:59:27;7.20;99.90
6496;DHT22;3281;47.658;9.166;2024-03-06T03:01:53;7.30;99.90
6496;DHT22;3281;47.658;9.166;2024-03-06T03:04:20;7.30;99.90
6496;DHT22;3281;47.658;9.166;2024-03-06T03:06:47;7.30;99.90
6496;DHT22;3281;47.658;9.166;2024-03-06T03:09:13;7.20;99.90
6496;DHT22;3281;47.658;9.166;2024-03-06T03:11:42;7.20;99.90
6496;DHT22;3281;47.658;9.166;2024-03-06T03:14:10;7.10;99.90
6496;DHT22;3281;47.658;9.166;2024-03-06T03:16:37;7.10;99.90
6496;DHT22;3281;47.658;9.166;2024-03-06T03:19:04;7.10;99.90
6496;DHT22;3281;47.658;9.166;2024-03-06T03:21:31;7.10;99.90
6496;DHT22;3281;47.658;9.166;2024-03-06T03:23:58;7.20;99.90
6496;DHT22;3281;47.658;9.166;2024-03-06T03:26:24;7.20;99.90
6496;DHT22;3281;47.658;9.166;2024-03-06T03:28:51;7.20;99.90
6496;DHT22;3281;47.658;9.166;2024-03-06T03:31:19;7.30;99.90
6496;DHT22;3281;47.658;9.166;2024-03-06T03:33:46;7.30;99.90
6496;DHT22;3281;47.658;9.166;2024-03-06T03:36:14;7.20;99.90
6496;DHT22;3281;47.658;9.166;2024-03-06T03:38:40;7.10;99.90
6496;DHT22;3281;47.658;9.166;2024-03-06T03:41:07;7.10;99.90
6496;DHT22;3281;47.658;9.166;2024-03-06T03:43:34;7.00;99.90
6496;DHT22;3281;47.658;9.166;2024-03-06T03:46:01;7.10;99.90
6496;DHT22;3281;47.658;9.166;2024-03-06T03:48:31;7.10;99.90
6496;DHT22;3281;47.658;9.166;2024-03-06T03:50:57;7.10;99.90
6496;DHT22;3281;47.658;9.166;2024-03-06T03:53:24;7.10;99.90
6496;DHT22;3281;47.658;9.166;2024-03-06T03:55:51;7.20;99.90
6496;DHT22;3281;47.658;9.166;2024-03-06T03:58:17;7.20;99.90
6496;DHT22;3281;47.658;9.166;2024-03-06T04:00:44;7.20;99.90
6496;DHT22;3281;47.658;9.166;2024-03-06T04:03:11;7.20;99.90
6496;DHT22;3281;47.658;9.166;2024-03-06T04:05:39;7.20;99.90
6496;DHT22;3281;47.658;9.166;2024-03-06T04:08:06;7.20;99.90
6496;DHT22;3281;47.658;9.166;2024-03-06T04:10:32;7.20;99.90
6496;DHT22;3281;47.658;9.166;2024-03-06T04:12:59;7.20;99.90
6496;DHT22;3281;47.658;9.166;2024-03-06T04:15:26;7.30;99.90
6496;DHT22;3281;47.658;9.166;2024-03-06T04:17:53;7.30;99.90
6496;DHT22;3281;47.658;9.166;2024-03-06T04:20:20;7.20;99.90
6496;DHT22;3281;47.658;9.166;2024-03-06T04:22:48;7.10;99.90
6496;DHT22;3281;47.658;9.166;2024-03-06T04:25:16;7.10;99.90
6496;DHT22;3281;47.658;9.166;2024-03-06T04:27:43;7.00;99.90
6496;DHT22;3281;47.658;9.166;2024-03-06T04:30:11;6.90;99.90
6496;DHT22;3281;47.658;9.166;2024-03-06T04:32:37;6.80;99.90
6496;DHT22;3281;47.658;9.166;2024-03-06T04:35:05;6.80;99.90
6496;DHT22;3281;47.658;9.166;2024-03-06T04:37:32;6.90;99.90
6496;DHT22;3281;47.658;9.166;2024-03-06T04:40:00;6.90;99.90
6496;DHT22;3281;47.658;9.166;2024-03-06T04:42:28;6.90;99.90
6496;DHT22;3281;47.658;9.166;2024-03-06T04:44:55;6.90;99.90
6496;DHT22;3281;47.658;9.166;2024-03-06T04:47:24;6.90;99.90
6496;DHT22;3281;47.658;9.166;2024-03-06T04:49:51;6.80;99.90
6496;DHT22;3281;47.658;9.166;2024-03-06T04:52:17;6.90;99.90
6496;DHT22;3281;47.658;9.166;2024-03-06T04:54:44;6.90;99.90
6496;DHT22;3281;47.658;9.166;2024-03-06T04:57:12;7.00;99.90
6496;DHT22;3281;47.658;9.166;2024-03-06T04:59:39;7.00;99.90
6496;DHT22;3281;47.658;9.166;2024-03-06T05:02:05;7.00;99.90
6496;DHT22;3281;47.658;9.166;2024-03-06T05:04:32;7.00;99.90
6496;DHT22;3281;47.658;9.166;2024-03-06T05:06:59;7.00;99.90
6496;DHT22;3281;47.658;9.166;2024-03-06T05:09:26;7.00;99.90
6496;DHT22;3281;47.658;9.166;2024-03-06T05:11:52;6.90;99.90
6496;DHT22;3281;47.658;9.166;2024-03-06T05:14:20;7.00;99.90
6496;DHT22;3281;47.658;9.166;2024-03-06T05:16:47;7.00;99.90
6496;DHT22;3281;47.658;9.166;2024-03-06T05:19:14;6.90;99.90
6496;DHT22;3281;47.658;9.166;2024-03-06T05:21:40;6.90;99.90
6496;DHT22;3281;47.658;9.166;2024-03-06T05:24:07;6.90;99.90
6496;DHT22;3281;47.658;9.166;2024-03-06T05:26:34;6.90;99.90
6496;DHT22;3281;47.658;9.166;2024-03-06T05:29:01;6.90;99.90
6496;DHT22;3281;47.658;9.166;2024-03-06T05:31:29;6.90;99.90
6496;DHT22;3281;47.658;9.166;2024-03-06T05:33:57;6.80;99.90
6496;DHT22;3281;47.658;9.166;2024-03-06T05:36:24;6.80;99.90
6496;DHT22;3281;47.658;9.166;2024-03-06T05:38:51;6.70;99.90
6496;DHT22;3281;47.658;9.166;2024-03-06T05:41:17;6.70;99.90
6496;DHT22;3281;47.658;9.166;2024-03-06T05:43:44;6.60;99.90
6496;DHT22;3281;47.658;9.166;2024-03-06T05:46:11;6.40;99.90
6496;DHT22;3281;47.658;9.166;2024-03-06T05:48:39;6.40;99.90
6496;DHT22;3281;47.658;9.166;2024-03-06T05:51:06;6.40;99.90
6496;DHT22;3281;47.658;9.166;2024-03-06T05:53:36;6.30;99.90
6496;DHT22;3281;47.658;9.166;2024-03-06T05:56:04;6.20;99.90
6496;DHT22;3281;47.658;9.166;2024-03-06T05:58:32;6.10;99.90
6496;DHT22;3281;47.658;9.166;2024-03-06T06:00:59;6.10;99.90
6496;DHT22;3281;47.658;9.166;2024-03-06T06:03:26;6.20;99.90
6496;DHT22;3281;47.658;9.166;2024-03-06T06:05:55;6.20;99.90
6496;DHT22;3281;47.658;9.166;2024-03-06T06:08:21;6.20;99.90
6496;DHT22;3281;47.658;9.166;2024-03-06T06:10:49;6.10;99.90
6496;DHT22;3281;47.658;9.166;2024-03-06T06:13:17;6.20;99.90
6496;DHT22;3281;47.658;9.166;2024-03-06T06:15:44;6.20;99.90
6496;DHT22;3281;47.658;9.166;2024-03-06T06:18:10;6.20;99.90
6496;DHT22;3281;47.658;9.166;2024-03-06T06:20:37;6.20;99.90
6496;DHT22;3281;47.658;9.166;2024-03-06T06:23:05;6.20;99.90
6496;DHT22;3281;47.658;9.166;2024-03-06T06:25:32;6.20;99.90
6496;DHT22;3281;47.658;9.166;2024-03-06T06:27:59;6.20;99.90
6496;DHT22;3281;47.658;9.166;2024-03-06T06:30:25;6.10;99.90
6496;DHT22;3281;47.658;9.166;2024-03-06T06:32:52;6.10;99.90
6496;DHT22;3281;47.658;9.166;2024-03-06T06:35:19;5.90;99.90
6496;DHT22;3281;47.658;9.166;2024-03-06T06:37:46;6.00;99.90
6496;DHT22;3281;47.658;9.166;2024-03-06T06:40:14;6.00;99.90
6496;DHT22;3281;47.658;9.166;2024-03-06T06:42:44;5.90;99.90
6496;DHT22;3281;47.658;9.166;2024-03-06T06:45:13;5.90;99.90
6496;DHT22;3281;47.658;9.166;2024-03-06T06:47:39;5.90;99.90
6496;DHT22;3281;47.658;9.166;2024-03-06T06:50:07;6.00;99.90
6496;DHT22;3281;47.658;9.166;2024-03-06T06:52:34;5.90;99.90
6496;DHT22;3281;47.658;9.166;2024-03-06T06:55:01;6.00;99.90
6496;DHT22;3281;47.658;9.166;2024-03-06T06:57:30;5.90;99.90
6496;DHT22;3281;47.658;9.166;2024-03-06T06:59:56;5.80;99.90
6496;DHT22;3281;47.658;9.166;2024-03-06T07:02:23;5.80;99.90
6496;DHT22;3281;47.658;9.166;2024-03-06T07:04:51;5.70;99.90
6496;DHT22;3281;47.658;9.166;2024-03-06T07:07:18;5.70;99.90
6496;DHT22;3281;47.658;9.166;2024-03-06T07:09:44;5.70;99.90
6496;DHT22;3281;47.658;9.166;2024-03-06T07:12:11;5.80;99.90
6496;DHT22;3281;47.658;9.166;2024-03-06T07:14:39;5.80;99.90
6496;DHT22;3281;47.658;9.166;2024-03-06T07:17:06;5.90;99.90
6496;DHT22;3281;47.658;9.166;2024-03-06T07:19:33;6.00;99.90
6496;DHT22;3281;47.658;9.166;2024-03-06T07:22:00;6.10;99.90
6496;DHT22;3281;47.658;9.166;2024-03-06T07:24:26;6.20;99.90
6496;DHT22;3281;47.658;9.166;2024-03-06T07:26:53;6.30;99.90
6496;DHT22;3281;47.658;9.166;2024-03-06T07:29:20;6.10;99.90
6496;DHT22;3281;47.658;9.166;2024-03-06T07:31:48;6.30;99.90
6496;DHT22;3281;47.658;9.166;2024-03-06T07:34:15;6.30;99.90
6496;DHT22;3281;47.658;9.166;2024-03-06T07:36:43;6.30;99.90
6496;DHT22;3281;47.658;9.166;2024-03-06T07:39:11;6.40;99.90
6496;DHT22;3281;47.658;9.166;2024-03-06T07:41:39;6.40;99.90
6496;DHT22;3281;47.658;9.166;2024-03-06T07:44:06;6.40;99.90
6496;DHT22;3281;47.658;9.166;2024-03-06T07:46:34;6.20;99.90
6496;DHT22;3281;47.658;9.166;2024-03-06T07:49:02;6.50;99.90
6496;DHT22;3281;47.658;9.166;2024-03-06T07:51:30;6.50;99.90
6496;DHT22;3281;47.658;9.166;2024-03-06T07:53:57;6.50;99.90
6496;DHT22;3281;47.658;9.166;2024-03-06T07:56:24;6.50;99.90
6496;DHT22;3281;47.658;9.166;2024-03-06T07:58:50;6.50;99.90
6496;DHT22;3281;47.658;9.166;2024-03-06T08:01:17;6.50;99.90
6496;DHT22;3281;47.658;9.166;2024-03-06T08:03:44;6.40;99.90
6496;DHT22;3281;47.658;9.166;2024-03-06T08:06:12;6.30;99.90
6496;DHT22;3281;47.658;9.166;2024-03-06T08:08:41;6.30;99.90
6496;DHT22;3281;47.658;9.166;2024-03-06T08:11:09;6.20;99.90
6496;DHT22;3281;47.658;9.166;2024-03-06T08:13:37;6.10;99.90
6496;DHT22;3281;47.658;9.166;2024-03-06T08:16:04;5.90;99.90
6496;DHT22;3281;47.658;9.166;2024-03-06T08:18:32;5.80;99.90
6496;DHT22;3281;47.658;9.166;2024-03-06T08:20:59;5.70;99.90
6496;DHT22;3281;47.658;9.166;2024-03-06T08:23:27;5.70;99.90
6496;DHT22;3281;47.658;9.166;2024-03-06T08:25:54;5.70;99.90
6496;DHT22;3281;47.658;9.166;2024-03-06T08:28:21;5.70;99.90
6496;DHT22;3281;47.658;9.166;2024-03-06T08:30:47;5.70;99.90
6496;DHT22;3281;47.658;9.166;2024-03-06T08:33:14;5.70;99.90
6496;DHT22;3281;47.658;9.166;2024-03-06T08:35:41;5.80;99.90
6496;DHT22;3281;47.658;9.166;2024-03-06T08:38:08;5.90;99.90
6496;DHT22;3281;47.658;9.166;2024-03-06T08:40:36;6.00;99.90
6496;DHT22;3281;47.658;9.166;2024-03-06T08:43:04;6.10;99.90
6496;DHT22;3281;47.658;9.166;2024-03-06T08:45:31;6.10;99.90
6496;DHT22;3281;47.658;9.166;2024-03-06T08:47:57;6.20;99.90
6496;DHT22;3281;47.658;9.166;2024-03-06T08:50:24;6.30;99.90
6496;DHT22;3281;47.658;9.166;2024-03-06T08:52:51;6.30;99.90
6496;DHT22;3281;47.658;9.166;2024-03-06T08:55:18;6.30;99.90
6496;DHT22;3281;47.658;9.166;2024-03-06T08:57:46;6.30;99.90
6496;DHT22;3281;47.658;9.166;2024-03-06T09:00:13;6.30;99.90
6496;DHT22;3281;47.658;9.166;2024-03-06T09:02:40;6.40;99.90
6496;DHT22;3281;47.658;9.166;2024-03-06T09:05:08;6.40;99.90
6496;DHT22;3281;47.658;9.166;2024-03-06T09:07:35;6.50;99.90
6496;DHT22;3281;47.658;9.166;2024-03-06T09:10:04;6.60;99.90
6496;DHT22;3281;47.658;9.166;2024-03-06T09:12:31;6.50;99.90
6496;DHT22;3281;47.658;9.166;2024-03-06T09:14:59;6.50;99.90
6496;DHT22;3281;47.658;9.166;2024-03-06T09:17:26;6.50;99.90
6496;DHT22;3281;47.658;9.166;2024-03-06T09:19:53;6.50;99.90
6496;DHT22;3281;47.658;9.166;2024-03-06T09:22:20;6.40;99.90
6496;DHT22;3281;47.658;9.166;2024-03-06T09:24:47;6.50;99.90
6496;DHT22;3281;47.658;9.166;2024-03-06T09:27:14;6.40;99.90
6496;DHT22;3281;47.658;9.166;2024-03-06T09:29:41;6.40;99.90
6496;DHT22;3281;47.658;9.166;2024-03-06T09:32:09;6.40;99.90
6496;DHT22;3281;47.658;9.166;2024-03-06T09:34:38;6.30;99.90
6496;DHT22;3281;47.658;9.166;2024-03-06T09:37:05;6.20;99.90
6496;DHT22;3281;47.658;9.166;2024-03-06T09:39:31;6.20;99.90
6496;DHT22;3281;47.658;9.166;2024-03-06T09:41:59;6.20;99.90
6496;DHT22;3281;47.658;9.166;2024-03-06T09:44:27;6.30;99.90
6496;DHT22;3281;47.658;9.166;2024-03-06T09:46:54;6.30;99.90
6496;DHT22;3281;47.658;9.166;2024-03-06T09:49:24;6.40;99.90
6496;DHT22;3281;47.658;9.166;2024-03-06T09:51:52;6.40;99.90
6496;DHT22;3281;47.658;9.166;2024-03-06T09:54:21;6.40;99.90
6496;DHT22;3281;47.658;9.166;2024-03-06T09:56:49;6.50;99.90
6496;DHT22;3281;47.658;9.166;2024-03-06T09:59:16;6.70;99.90
6496;DHT22;3281;47.658;9.166;2024-03-06T10:01:50;6.80;99.90
6496;DHT22;3281;47.658;9.166;2024-03-06T10:04:17;6.70;99.90
6496;DHT22;3281;47.658;9.166;2024-03-06T10:06:46;6.60;99.90
6496;DHT22;3281;47.658;9.166;2024-03-06T10:09:16;6.70;99.90
6496;DHT22;3281;47.658;9.166;2024-03-06T10:11:43;6.60;99.90
6496;DHT22;3281;47.658;9.166;2024-03-06T10:14:10;6.50;99.90
6496;DHT22;3281;47.658;9.166;2024-03-06T10:16:37;6.40;99.90
6496;DHT22;3281;47.658;9.166;2024-03-06T10:19:16;6.40;99.90
6496;DHT22;3281;47.658;9.166;2024-03-06T10:21:46;6.50;99.90
6496;DHT22;3281;47.658;9.166;2024-03-06T10:24:17;6.70;99.90
6496;DHT22;3281;47.658;9.166;2024-03-06T10:26:45;6.70;99.90
6496;DHT22;3281;47.658;9.166;2024-03-06T10:29:15;6.70;99.90
6496;DHT22;3281;47.658;9.166;2024-03-06T10:31:47;6.80;99.90
6496;DHT22;3281;47.658;9.166;2024-03-06T10:34:14;6.80;99.90
6496;DHT22;3281;47.658;9.166;2024-03-06T10:36:42;6.80;99.90
6496;DHT22;3281;47.658;9.166;2024-03-06T10:39:11;6.70;99.90
6496;DHT22;3281;47.658;9.166;2024-03-06T10:41:40;6.60;99.90
6496;DHT22;3281;47.658;9.166;2024-03-06T10:44:11;6.60;99.90
6496;DHT22;3281;47.658;9.166;2024-03-06T10:46:41;6.60;99.90
6496;DHT22;3281;47.658;9.166;2024-03-06T10:49:10;6.80;99.90
6496;DHT22;3281;47.658;9.166;2024-03-06T10:51:39;7.00;99.90
6496;DHT22;3281;47.658;9.166;2024-03-06T10:54:10;7.00;99.90
6496;DHT22;3281;47.658;9.166;2024-03-06T10:56:39;6.70;99.90
6496;DHT22;3281;47.658;9.166;2024-03-06T10:59:10;7.00;99.90
6496;DHT22;3281;47.658;9.166;2024-03-06T11:01:39;6.90;99.90
6496;DHT22;3281;47.658;9.166;2024-03-06T11:04:05;7.00;99.90
6496;DHT22;3281;47.658;9.166;2024-03-06T11:06:33;6.90;99.90
6496;DHT22;3281;47.658;9.166;2024-03-06T11:09:00;6.80;99.90
6496;DHT22;3281;47.658;9.166;2024-03-06T11:11:29;6.90;99.90
6496;DHT22;3281;47.658;9.166;2024-03-06T11:14:00;6.90;99.90
6496;DHT22;3281;47.658;9.166;2024-03-06T11:16:28;6.80;99.90
6496;DHT22;3281;47.658;9.166;2024-03-06T11:19:05;6.80;99.90
6496;DHT22;3281;47.658;9.166;2024-03-06T11:21:32;6.80;99.90
6496;DHT22;3281;47.658;9.166;2024-03-06T11:24:13;6.90;99.90
6496;DHT22;3281;47.658;9.166;2024-03-06T11:26:43;6.90;99.90
6496;DHT22;3281;47.658;9.166;2024-03-06T11:29:13;6.80;99.90
6496;DHT22;3281;47.658;9.166;2024-03-06T11:31:57;6.80;99.90
6496;DHT22;3281;47.658;9.166;2024-03-06T11:34:26;6.80;99.90
6496;DHT22;3281;47.658;9.166;2024-03-06T11:36:53;6.90;99.90
6496;DHT22;3281;47.658;9.166;2024-03-06T11:39:22;6.90;99.90
6496;DHT22;3281;47.658;9.166;2024-03-06T11:41:51;7.00;99.90
6496;DHT22;3281;47.658;9.166;2024-03-06T11:44:18;6.90;99.90
6496;DHT22;3281;47.658;9.166;2024-03-06T11:46:47;6.90;99.90
6496;DHT22;3281;47.658;9.166;2024-03-06T11:49:15;6.90;99.90
6496;DHT22;3281;47.658;9.166;2024-03-06T11:51:44;6.80;99.90
6496;DHT22;3281;47.658;9.166;2024-03-06T11:54:11;6.70;99.90
6496;DHT22;3281;47.658;9.166;2024-03-06T11:56:39;6.70;99.90
6496;DHT22;3281;47.658;9.166;2024-03-06T11:59:07;6.70;99.90
6496;DHT22;3281;47.658;9.166;2024-03-06T12:01:35;6.60;99.90
6496;DHT22;3281;47.658;9.166;2024-03-06T12:04:02;6.70;99.90
6496;DHT22;3281;47.658;9.166;2024-03-06T12:06:29;6.70;99.90
6496;DHT22;3281;47.658;9.166;2024-03-06T12:08:56;6.60;99.90
6496;DHT22;3281;47.658;9.166;2024-03-06T12:11:24;6.50;99.90
6496;DHT22;3281;47.658;9.166;2024-03-06T12:13:53;6.60;99.90
6496;DHT22;3281;47.658;9.166;2024-03-06T12:16:22;6.70;99.90
6496;DHT22;3281;47.658;9.166;2024-03-06T12:18:54;6.70;99.90
6496;DHT22;3281;47.658;9.166;2024-03-06T12:21:23;6.80;99.90
6496;DHT22;3281;47.658;9.166;2024-03-06T12:24:02;6.90;99.90
6496;DHT22;3281;47.658;9.166;2024-03-06T12:26:29;6.80;99.90
6496;DHT22;3281;47.658;9.166;2024-03-06T12:29:04;6.80;99.90
6496;DHT22;3281;47.658;9.166;2024-03-06T12:31:35;6.70;99.90
6496;DHT22;3281;47.658;9.166;2024-03-06T12:34:02;6.60;99.90
6496;DHT22;3281;47.658;9.166;2024-03-06T12:36:29;6.50;99.90
6496;DHT22;3281;47.658;9.166;2024-03-06T12:38:58;6.40;99.90
6496;DHT22;3281;47.658;9.166;2024-03-06T12:41:25;6.50;99.90
6496;DHT22;3281;47.658;9.166;2024-03-06T12:43:53;6.50;99.90
6496;DHT22;3281;47.658;9.166;2024-03-06T12:46:21;6.60;99.90
6496;DHT22;3281;47.658;9.166;2024-03-06T12:48:50;6.70;99.90
6496;DHT22;3281;47.658;9.166;2024-03-06T12:51:16;6.80;99.90
6496;DHT22;3281;47.658;9.166;2024-03-06T12:53:43;6.80;99.90
6496;DHT22;3281;47.658;9.166;2024-03-06T12:56:10;6.80;99.90
6496;DHT22;3281;47.658;9.166;2024-03-06T12:58:36;6.80;99.90
6496;DHT22;3281;47.658;9.166;2024-03-06T13:01:03;6.80;99.90
6496;DHT22;3281;47.658;9.166;2024-03-06T13:03:31;6.80;99.90
6496;DHT22;3281;47.658;9.166;2024-03-06T13:05:59;6.80;99.90
6496;DHT22;3281;47.658;9.166;2024-03-06T13:08:26;6.70;99.90
6496;DHT22;3281;47.658;9.166;2024-03-06T13:10:53;6.60;99.90
6496;DHT22;3281;47.658;9.166;2024-03-06T13:13:21;6.50;99.90
6496;DHT22;3281;47.658;9.166;2024-03-06T13:15:49;6.50;99.90
6496;DHT22;3281;47.658;9.166;2024-03-06T13:18:16;6.60;99.90
6496;DHT22;3281;47.658;9.166;2024-03-06T13:20:43;6.60;99.90
6496;DHT22;3281;47.658;9.166;2024-03-06T13:23:11;6.70;99.90
6496;DHT22;3281;47.658;9.166;2024-03-06T13:25:38;6.70;99.90
6496;DHT22;3281;47.658;9.166;2024-03-06T13:28:05;6.80;99.90
6496;DHT22;3281;47.658;9.166;2024-03-06T13:30:32;6.80;99.90
6496;DHT22;3281;47.658;9.166;2024-03-06T13:32:59;6.70;99.90
6496;DHT22;3281;47.658;9.166;2024-03-06T13:35:25;6.70;99.90
6496;DHT22;3281;47.658;9.166;2024-03-06T13:37:52;6.70;99.90
6496;DHT22;3281;47.658;9.166;2024-03-06T13:40:20;6.60;99.90
6496;DHT22;3281;47.658;9.166;2024-03-06T13:42:47;6.60;99.90
6496;DHT22;3281;47.658;9.166;2024-03-06T13:45:14;6.60;99.90
6496;DHT22;3281;47.658;9.166;2024-03-06T13:47:43;6.60;99.90
6496;DHT22;3281;47.658;9.166;2024-03-06T13:50:11;6.60;99.90
6496;DHT22;3281;47.658;9.166;2024-03-06T13:52:38;6.50;99.90
6496;DHT22;3281;47.658;9.166;2024-03-06T13:55:05;6.50;99.90
6496;DHT22;3281;47.658;9.166;2024-03-06T13:57:36;6.50;99.90
6496;DHT22;3281;47.658;9.166;2024-03-06T14:00:04;6.40;99.90
6496;DHT22;3281;47.658;9.166;2024-03-06T14:02:31;6.50;99.90
6496;DHT22;3281;47.658;9.166;2024-03-06T14:04:59;6.60;99.90
6496;DHT22;3281;47.658;9.166;2024-03-06T14:07:26;6.60;99.90
6496;DHT22;3281;47.658;9.166;2024-03-06T14:09:53;6.60;99.90
6496;DHT22;3281;47.658;9.166;2024-03-06T14:12:22;6.60;99.90
6496;DHT22;3281;47.658;9.166;2024-03-06T14:14:50;6.60;99.90
6496;DHT22;3281;47.658;9.166;2024-03-06T14:17:17;6.60;99.90
6496;DHT22;3281;47.658;9.166;2024-03-06T14:19:43;6.50;99.90
6496;DHT22;3281;47.658;9.166;2024-03-06T14:22:11;6.50;99.90
6496;DHT22;3281;47.658;9.166;2024-03-06T14:24:37;6.60;99.90
6496;DHT22;3281;47.658;9.166;2024-03-06T14:27:04;6.60;99.90
6496;DHT22;3281;47.658;9.166;2024-03-06T14:29:31;6.50;99.90
6496;DHT22;3281;47.658;9.166;2024-03-06T14:31:59;6.50;99.90
6496;DHT22;3281;47.658;9.166;2024-03-06T14:34:26;6.40;99.90
6496;DHT22;3281;47.658;9.166;2024-03-06T14:36:53;6.40;99.90
6496;DHT22;3281;47.658;9.166;2024-03-06T14:39:20;6.50;99.90
6496;DHT22;3281;47.658;9.166;2024-03-06T14:41:48;6.50;99.90
6496;DHT22;3281;47.658;9.166;2024-03-06T14:44:15;6.50;99.90
6496;DHT22;3281;47.658;9.166;2024-03-06T14:46:42;6.30;99.90
6496;DHT22;3281;47.658;9.166;2024-03-06T14:49:10;6.30;99.90
6496;DHT22;3281;47.658;9.166;2024-03-06T14:51:36;6.30;99.90
6496;DHT22;3281;47.658;9.166;2024-03-06T14:54:03;6.20;99.90
6496;DHT22;3281;47.658;9.166;2024-03-06T14:56:30;6.30;99.90
6496;DHT22;3281;47.658;9.166;2024-03-06T14:58:57;6.20;99.90
6496;DHT22;3281;47.658;9.166;2024-03-06T15:01:24;6.20;99.90
6496;DHT22;3281;47.658;9.166;2024-03-06T15:03:51;6.30;99.90
6496;DHT22;3281;47.658;9.166;2024-03-06T15:06:19;6.20;99.90
6496;DHT22;3281;47.658;9.166;2024-03-06T15:08:46;6.10;99.90
6496;DHT22;3281;47.658;9.166;2024-03-06T15:11:13;6.10;99.90
6496;DHT22;3281;47.658;9.166;2024-03-06T15:13:40;6.00;99.90
6496;DHT22;3281;47.658;9.166;2024-03-06T15:16:07;6.00;99.90
6496;DHT22;3281;47.658;9.166;2024-03-06T15:18:34;6.10;99.90
6496;DHT22;3281;47.658;9.166;2024-03-06T15:21:01;6.00;99.90
6496;DHT22;3281;47.658;9.166;2024-03-06T15:23:29;5.90;99.90
6496;DHT22;3281;47.658;9.166;2024-03-06T15:25:58;5.90;99.90
6496;DHT22;3281;47.658;9.166;2024-03-06T15:28:25;6.00;99.90
6496;DHT22;3281;47.658;9.166;2024-03-06T15:30:51;5.90;99.90
6496;DHT22;3281;47.658;9.166;2024-03-06T15:33:18;6.00;99.90
6496;DHT22;3281;47.658;9.166;2024-03-06T15:35:45;6.00;99.90
6496;DHT22;3281;47.658;9.166;2024-03-06T15:38:12;5.90;99.90
6496;DHT22;3281;47.658;9.166;2024-03-06T15:40:40;5.90;99.90
6496;DHT22;3281;47.658;9.166;2024-03-06T15:43:06;5.90;99.90
6496;DHT22;3281;47.658;9.166;2024-03-06T15:45:33;6.00;99.90
6496;DHT22;3281;47.658;9.166;2024-03-06T15:48:00;6.00;99.90
6496;DHT22;3281;47.658;9.166;2024-03-06T15:50:27;5.90;99.90
6496;DHT22;3281;47.658;9.166;2024-03-06T15:52:54;5.90;99.90
6496;DHT22;3281;47.658;9.166;2024-03-06T15:55:20;5.80;99.90
6496;DHT22;3281;47.658;9.166;2024-03-06T15:57:48;5.80;99.90
6496;DHT22;3281;47.658;9.166;2024-03-06T16:00:15;5.70;99.90
6496;DHT22;3281;47.658;9.166;2024-03-06T16:02:43;5.60;99.90
6496;DHT22;3281;47.658;9.166;2024-03-06T16:05:10;5.70;99.90
6496;DHT22;3281;47.658;9.166;2024-03-06T16:07:37;5.70;99.90
6496;DHT22;3281;47.658;9.166;2024-03-06T16:10:04;5.70;99.90
6496;DHT22;3281;47.658;9.166;2024-03-06T16:12:32;5.70;99.90
6496;DHT22;3281;47.658;9.166;2024-03-06T16:15:01;5.70;99.90
6496;DHT22;3281;47.658;9.166;2024-03-06T16:17:29;5.70;99.90